createdAt,value
2018-06-01T00:00:48.659Z,6.00
2018-06-01T00:03:17.006Z,5.90
2018-06-01T00:05:45.327Z,7.30
2018-06-01T00:08:13.660Z,6.37
2018-06-01T00:10:41.984Z,6.20
2018-06-01T00:13:10.354Z,6.67
2018-06-01T00:15:38.691Z,6.10
2018-06-01T00:18:07.108Z,5.73
2018-06-01T00:20:36.251Z,5.70
2018-06-01T00:23:04.583Z,5.53
2018-06-01T00:25:33.729Z,6.20
2018-06-01T00:28:02.840Z,6.70
2018-06-01T00:30:31.146Z,7.00
2018-06-01T00:33:00.277Z,5.40
2018-06-01T00:35:28.587Z,5.53
2018-06-01T00:37:56.932Z,6.13
2018-06-01T00:40:25.764Z,5.67
2018-06-01T00:42:54.282Z,6.10
2018-06-01T00:45:22.610Z,6.10
2018-06-01T00:47:50.989Z,6.40
2018-06-01T00:50:19.360Z,5.93
2018-06-01T00:52:47.693Z,6.00
2018-06-01T00:55:25.468Z,6.00
2018-06-01T00:57:53.803Z,5.60
2018-06-01T01:00:22.134Z,6.80
2018-06-01T01:02:51.394Z,5.50
2018-06-01T01:05:19.712Z,5.50
2018-06-01T01:07:48.057Z,6.20
2018-06-01T01:10:16.397Z,5.40
2018-06-01T01:12:44.709Z,5.60
2018-06-01T01:15:13.023Z,5.70
2018-06-01T01:17:41.344Z,5.80
2018-06-01T01:20:09.648Z,6.50
2018-06-01T01:22:37.985Z,6.30
2018-06-01T01:25:06.664Z,6.60
2018-06-01T01:27:34.986Z,6.27
2018-06-01T01:30:03.292Z,6.03
2018-06-01T01:32:31.622Z,5.70
2018-06-01T01:34:59.921Z,6.40
2018-06-01T01:37:31.929Z,6.00
2018-06-01T01:40:00.260Z,6.77
2018-06-01T01:42:28.765Z,6.70
2018-06-01T01:44:57.247Z,6.40
2018-06-01T01:47:25.922Z,5.50
2018-06-01T01:49:55.014Z,6.73
2018-06-01T01:52:23.329Z,6.27
2018-06-01T01:54:52.479Z,5.67
2018-06-01T01:57:20.815Z,5.83
2018-06-01T01:59:49.127Z,6.43
2018-06-01T02:02:17.459Z,6.20
2018-06-01T02:04:46.524Z,6.27
2018-06-01T02:07:14.848Z,5.87
2018-06-01T02:09:43.656Z,6.80
2018-06-01T02:12:11.991Z,6.90
2018-06-01T02:14:40.352Z,6.77
2018-06-01T02:17:08.690Z,6.23
2018-06-01T02:19:36.998Z,5.80
2018-06-01T02:22:05.307Z,6.30
2018-06-01T02:24:33.679Z,6.40
2018-06-01T02:27:01.977Z,6.63
2018-06-01T02:29:30.296Z,6.70
2018-06-01T02:31:59.123Z,6.33
2018-06-01T02:34:27.452Z,6.60
2018-06-01T02:36:55.775Z,6.67
2018-06-01T02:39:24.173Z,7.33
2018-06-01T02:41:53.283Z,6.57
2018-06-01T02:44:21.615Z,6.87
2018-06-01T02:46:49.965Z,6.37
2018-06-01T02:49:19.033Z,6.53
2018-06-01T02:51:48.138Z,6.03
2018-06-01T02:54:17.091Z,6.23
2018-06-01T02:56:45.410Z,6.97
2018-06-01T02:59:13.741Z,6.53
2018-06-01T03:01:42.099Z,6.97
2018-06-01T03:04:10.401Z,6.23
2018-06-01T03:06:56.351Z,6.43
2018-06-01T03:09:24.664Z,6.73
2018-06-01T03:11:52.983Z,6.80
2018-06-01T03:14:22.792Z,6.43
2018-06-01T03:16:51.097Z,6.13
2018-06-01T03:19:19.401Z,7.07
2018-06-01T03:21:47.756Z,6.27
2018-06-01T03:24:16.089Z,6.33
2018-06-01T03:26:45.190Z,6.03
2018-06-01T03:29:13.546Z,6.40
2018-06-01T03:31:41.876Z,5.97
2018-06-01T03:34:10.219Z,5.70
2018-06-01T03:36:39.499Z,5.50
2018-06-01T03:39:07.812Z,6.40
2018-06-01T03:41:36.903Z,6.70
2018-06-01T03:44:05.274Z,6.20
2018-06-01T03:46:33.600Z,6.97
2018-06-01T03:49:01.908Z,6.70
2018-06-01T03:51:30.241Z,6.40
2018-06-01T03:53:58.555Z,6.53
2018-06-01T03:56:26.879Z,6.57
2018-06-01T03:58:56.288Z,5.73
2018-06-01T04:01:25.363Z,5.90
2018-06-01T04:03:54.462Z,7.30
2018-06-01T04:06:23.583Z,6.53
2018-06-01T04:08:51.905Z,6.00
2018-06-01T04:11:20.259Z,7.03
2018-06-01T04:13:48.608Z,6.47
2018-06-01T04:16:17.692Z,6.83
2018-06-01T04:18:46.015Z,8.00
2018-06-01T04:21:14.708Z,6.63
2018-06-01T04:23:43.007Z,6.17
2018-06-01T04:26:11.335Z,7.33
2018-06-01T04:28:40.493Z,6.70
2018-06-01T04:31:08.828Z,6.37
2018-06-01T04:33:37.162Z,7.13
2018-06-01T04:36:06.247Z,6.53
2018-06-01T04:38:34.552Z,6.20
2018-06-01T04:41:03.646Z,6.40
2018-06-01T04:43:33.012Z,6.20
2018-06-01T04:46:01.313Z,6.27
2018-06-01T04:48:29.630Z,6.10
2018-06-01T04:50:57.978Z,6.57
2018-06-01T04:53:27.062Z,6.50
2018-06-01T04:55:55.368Z,6.33
2018-06-01T04:58:23.727Z,7.40
2018-06-01T05:00:52.024Z,6.60
2018-06-01T05:03:20.333Z,6.10
2018-06-01T05:05:49.172Z,6.10
2018-06-01T05:08:17.514Z,7.50
2018-06-01T05:10:45.848Z,6.40
2018-06-01T05:13:14.196Z,6.67
2018-06-01T05:15:42.495Z,6.40
2018-06-01T05:18:10.814Z,6.03
2018-06-01T05:20:39.148Z,6.43
2018-06-01T05:23:08.263Z,6.40
2018-06-01T05:25:36.608Z,6.70
2018-06-01T05:28:05.826Z,6.30
2018-06-01T05:30:34.929Z,7.43
2018-06-01T05:33:03.239Z,6.30
2018-06-01T05:35:31.599Z,6.73
2018-06-01T05:37:59.895Z,7.97
2018-06-01T05:40:28.237Z,6.97
2018-06-01T05:42:57.358Z,6.60
2018-06-01T05:45:25.660Z,6.00
2018-06-01T05:47:53.968Z,6.87
2018-06-01T05:50:22.957Z,7.07
2018-06-01T05:52:51.233Z,6.93
2018-06-01T05:55:19.621Z,5.53
2018-06-01T05:57:48.787Z,6.53
2018-06-01T06:00:17.155Z,6.93
2018-06-01T06:02:45.485Z,7.10
2018-06-01T06:05:14.620Z,7.23
2018-06-01T06:07:42.958Z,6.70
2018-06-01T06:10:12.044Z,6.40
2018-06-01T06:12:40.498Z,6.87
2018-06-01T06:15:08.834Z,6.67
2018-06-01T06:17:37.181Z,7.43
2018-06-01T06:20:05.529Z,7.87
2018-06-01T06:22:33.835Z,6.67
2018-06-01T06:25:02.151Z,6.80
2018-06-01T06:27:30.492Z,7.03
2018-06-01T06:29:58.870Z,7.07
2018-06-01T06:32:27.987Z,6.60
2018-06-01T06:34:57.577Z,6.80
2018-06-01T06:37:25.876Z,7.40
2018-06-01T06:39:54.191Z,6.40
2018-06-01T06:42:22.542Z,7.00
2018-06-01T06:44:50.858Z,6.30
2018-06-01T06:47:19.392Z,6.77
2018-06-01T06:49:49.212Z,5.70
2018-06-01T06:52:17.527Z,6.00
2018-06-01T06:54:45.820Z,6.23
2018-06-01T06:57:14.509Z,7.20
2018-06-01T06:59:42.823Z,6.90
2018-06-01T07:02:11.150Z,6.27
2018-06-01T07:04:39.507Z,6.47
2018-06-01T07:07:07.828Z,6.47
2018-06-01T07:09:36.202Z,6.83
2018-06-01T07:12:04.574Z,6.40
2018-06-01T07:14:32.887Z,6.67
2018-06-01T07:17:01.988Z,6.67
2018-06-01T07:19:30.667Z,7.47
2018-06-01T07:21:59.050Z,6.10
2018-06-01T07:24:28.142Z,7.40
2018-06-01T07:26:57.258Z,7.50
2018-06-01T07:29:26.332Z,7.43
2018-06-01T07:31:55.459Z,7.23
2018-06-01T07:34:23.818Z,7.60
2018-06-01T07:36:52.147Z,7.87
2018-06-01T07:39:20.537Z,7.83
2018-06-01T07:41:48.977Z,7.53
2018-06-01T07:44:17.282Z,7.90
2018-06-01T07:46:45.604Z,7.83
2018-06-01T07:49:14.400Z,7.63
2018-06-01T07:51:43.491Z,8.57
2018-06-01T07:54:12.571Z,7.47
2018-06-01T07:56:40.916Z,7.90
2018-06-01T07:59:09.248Z,8.17
2018-06-01T08:01:37.607Z,8.47
2018-06-01T08:04:06.245Z,7.80
2018-06-01T08:06:34.548Z,8.30
2018-06-01T08:09:02.877Z,8.07
2018-06-01T08:11:31.987Z,8.40
2018-06-01T08:14:00.315Z,7.60
2018-06-01T08:16:28.669Z,8.00
2018-06-01T08:18:57.040Z,8.60
2018-06-01T08:21:25.381Z,8.87
2018-06-01T08:23:53.687Z,9.23
2018-06-01T08:26:22.391Z,8.57
2018-06-01T08:28:50.899Z,8.83
2018-06-01T08:31:19.312Z,9.90
2018-06-01T08:33:47.759Z,9.20
2018-06-01T08:36:16.305Z,9.20
2018-06-01T08:38:44.849Z,9.37
2018-06-01T08:41:13.978Z,8.10
2018-06-01T08:43:42.337Z,8.60
2018-06-01T08:46:10.639Z,8.80
2018-06-01T08:48:39.097Z,9.57
2018-06-01T08:51:07.953Z,8.20
2018-06-01T08:53:36.293Z,8.53
2018-06-01T08:56:04.683Z,8.90
2018-06-01T08:58:33.214Z,9.10
2018-06-01T09:01:02.437Z,9.53
2018-06-01T09:03:31.028Z,9.27
2018-06-01T09:05:59.679Z,9.20
2018-06-01T09:08:28.125Z,9.67
2018-06-01T09:10:57.039Z,8.80
2018-06-01T09:13:25.569Z,8.70
2018-06-01T09:15:54.034Z,7.90
2018-06-01T09:18:22.968Z,8.57
2018-06-01T09:20:51.298Z,8.43
2018-06-01T09:23:20.411Z,10.23
2018-06-01T09:25:48.756Z,9.40
2018-06-01T09:28:17.151Z,8.60
2018-06-01T09:30:45.725Z,8.70
2018-06-01T09:33:14.434Z,7.63
2018-06-01T09:35:42.764Z,8.00
2018-06-01T09:38:11.361Z,9.60
2018-06-01T09:40:39.732Z,8.90
2018-06-01T09:43:08.070Z,9.03
2018-06-01T09:45:36.386Z,10.57
2018-06-01T09:48:04.757Z,9.37
2018-06-01T09:50:33.277Z,8.90
2018-06-01T09:53:01.663Z,10.40
2018-06-01T09:55:30.607Z,9.83
2018-06-01T09:57:59.045Z,9.13
2018-06-01T10:00:32.796Z,8.77
2018-06-01T10:03:01.315Z,9.40
2018-06-01T10:05:29.800Z,10.20
2018-06-01T10:07:58.483Z,10.17
2018-06-01T10:10:32.429Z,9.60
2018-06-01T10:13:01.317Z,10.50
2018-06-01T10:15:29.661Z,10.70
2018-06-01T10:17:58.004Z,9.47
2018-06-01T10:20:26.329Z,9.57
2018-06-01T10:22:55.418Z,9.77
2018-06-01T10:25:24.554Z,9.97
2018-06-01T10:27:52.932Z,10.53
2018-06-01T10:30:21.265Z,11.57
2018-06-01T10:32:50.405Z,11.00
2018-06-01T10:35:19.394Z,10.80
2018-06-01T10:37:47.761Z,11.67
2018-06-01T10:40:16.869Z,11.97
2018-06-01T10:42:45.291Z,11.30
2018-06-01T10:45:13.687Z,12.37
2018-06-01T10:47:42.015Z,12.50
2018-06-01T10:50:10.481Z,11.63
2018-06-01T10:52:38.944Z,13.00
2018-06-01T10:55:07.415Z,11.30
2018-06-01T10:57:36.104Z,11.90
2018-06-01T11:00:04.417Z,13.50
2018-06-01T11:02:32.909Z,11.70
2018-06-01T11:05:01.360Z,11.60
2018-06-01T11:07:29.717Z,10.60
2018-06-01T11:09:59.651Z,11.73
2018-06-01T11:12:28.777Z,11.70
2018-06-01T11:14:57.123Z,10.40
2018-06-01T11:17:25.651Z,10.80
2018-06-01T11:19:54.499Z,10.20
2018-06-01T11:22:23.032Z,11.73
2018-06-01T11:24:51.490Z,11.53
2018-06-01T11:27:20.130Z,12.70
2018-06-01T11:29:48.463Z,12.10
2018-06-01T11:32:16.949Z,12.57
2018-06-01T11:34:45.287Z,12.37
2018-06-01T11:37:14.499Z,12.27
2018-06-01T11:39:42.919Z,11.20
2018-06-01T11:42:11.528Z,11.50
2018-06-01T11:44:39.903Z,11.10
2018-06-01T11:47:08.284Z,11.67
2018-06-01T11:49:37.695Z,11.67
2018-06-01T11:52:06.278Z,11.80
2018-06-01T11:54:34.718Z,11.80
2018-06-01T11:57:03.196Z,11.27
2018-06-01T11:59:31.865Z,11.53
2018-06-01T12:02:00.207Z,10.47
2018-06-01T12:04:28.623Z,10.30
2018-06-01T12:06:56.972Z,9.90
2018-06-01T12:09:26.076Z,11.37
2018-06-01T12:11:55.393Z,9.90
2018-06-01T12:14:23.724Z,9.03
2018-06-01T12:16:52.430Z,9.97
2018-06-01T12:19:20.786Z,10.50
2018-06-01T12:21:49.117Z,10.90
2018-06-01T12:24:17.434Z,11.93
2018-06-01T12:26:46.329Z,10.00
2018-06-01T12:29:14.840Z,11.43
2018-06-01T12:31:43.172Z,11.90
2018-06-01T12:34:11.621Z,9.30
2018-06-01T12:36:40.090Z,12.03
2018-06-01T12:39:08.536Z,10.60
2018-06-01T12:41:36.904Z,10.60
2018-06-01T12:44:06.039Z,11.43
2018-06-01T12:46:35.136Z,10.40
2018-06-01T12:49:04.948Z,11.73
2018-06-01T12:51:33.393Z,11.80
2018-06-01T12:54:01.763Z,11.73
2018-06-01T12:56:30.250Z,12.30
2018-06-01T12:58:58.605Z,11.90
2018-06-01T13:01:26.937Z,10.60
2018-06-01T13:03:55.282Z,11.30
2018-06-01T13:06:23.725Z,12.30
2018-06-01T13:08:52.860Z,10.80
2018-06-01T13:11:21.703Z,12.70
2018-06-01T13:13:50.032Z,11.57
2018-06-01T13:16:19.418Z,11.60
2018-06-01T13:18:48.008Z,11.53
2018-06-01T13:21:16.411Z,12.77
2018-06-01T13:23:44.952Z,11.63
2018-06-01T13:26:13.389Z,11.43
2018-06-01T13:28:41.725Z,11.30
2018-06-01T13:31:10.044Z,12.27
2018-06-01T13:33:38.621Z,11.27
2018-06-01T13:36:06.973Z,10.87
2018-06-01T13:38:35.381Z,11.90
2018-06-01T13:41:03.774Z,11.80
2018-06-01T13:43:32.892Z,11.63
2018-06-01T13:46:02.019Z,11.80
2018-06-01T13:48:30.413Z,11.53
2018-06-01T13:50:58.780Z,11.13
2018-06-01T13:53:27.429Z,10.60
2018-06-01T13:55:56.624Z,11.07
2018-06-01T13:58:24.975Z,9.80
2018-06-01T14:00:53.292Z,10.83
2018-06-01T14:03:22.437Z,10.30
2018-06-01T14:05:50.750Z,11.60
2018-06-01T14:08:19.099Z,10.53
2018-06-01T14:10:48.248Z,9.80
2018-06-01T14:13:16.575Z,11.30
2018-06-01T14:15:44.904Z,10.60
2018-06-01T14:18:13.756Z,10.73
2018-06-01T14:20:42.105Z,11.20
2018-06-01T14:23:10.423Z,11.00
2018-06-01T14:25:38.768Z,11.20
2018-06-01T14:28:07.096Z,11.30
2018-06-01T14:30:35.405Z,10.07
2018-06-01T14:33:03.754Z,10.10
2018-06-01T14:35:32.846Z,9.83
2018-06-01T14:38:01.918Z,9.70
2018-06-01T14:40:30.346Z,9.30
2018-06-01T14:42:58.712Z,11.20
2018-06-01T14:45:27.058Z,11.23
2018-06-01T14:47:55.400Z,10.03
2018-06-01T14:50:23.743Z,10.30
2018-06-01T14:52:52.829Z,10.87
2018-06-01T14:55:22.199Z,10.67
2018-06-01T14:57:50.530Z,10.13
2018-06-01T15:00:18.846Z,10.10
2018-06-01T15:02:47.883Z,9.50
2018-06-01T15:05:16.224Z,10.00
2018-06-01T15:07:44.571Z,9.77
2018-06-01T15:10:12.906Z,10.27
2018-06-01T15:12:41.222Z,9.10
2018-06-01T15:15:09.582Z,10.40
2018-06-01T15:17:38.680Z,9.80
2018-06-01T15:20:07.778Z,9.77
2018-06-01T15:22:36.855Z,7.70
2018-06-01T15:25:05.358Z,8.70
2018-06-01T15:27:33.706Z,7.77
2018-06-01T15:30:02.055Z,8.50
2018-06-01T15:32:30.404Z,8.60
2018-06-01T15:34:59.491Z,8.97
2018-06-01T15:37:28.028Z,8.97
2018-06-01T15:39:56.398Z,8.13
2018-06-01T15:42:24.716Z,7.97
2018-06-01T15:44:53.771Z,7.97
2018-06-01T15:47:22.588Z,7.97
2018-06-01T15:49:50.916Z,7.47
2018-06-01T15:52:19.221Z,7.23
2018-06-01T15:54:47.587Z,6.40
2018-06-01T15:57:16.413Z,6.27
2018-06-01T15:59:44.740Z,6.30
2018-06-01T16:02:13.068Z,6.37
2018-06-01T16:04:41.385Z,6.50
2018-06-01T16:07:09.739Z,7.27
2018-06-01T16:09:39.351Z,7.40
2018-06-01T16:12:07.659Z,8.90
2018-06-01T16:14:36.347Z,7.40
2018-06-01T16:17:04.732Z,7.93
2018-06-01T16:19:33.064Z,6.80
2018-06-01T16:22:01.372Z,7.90
2018-06-01T16:24:29.721Z,7.40
2018-06-01T16:26:58.812Z,7.27
2018-06-01T16:29:27.133Z,6.60
2018-06-01T16:31:55.849Z,7.10
2018-06-01T16:34:24.187Z,6.40
2018-06-01T16:36:52.512Z,5.70
2018-06-01T16:39:20.855Z,6.80
2018-06-01T16:41:49.204Z,6.53
2018-06-01T16:44:18.302Z,6.20
2018-06-01T16:46:46.655Z,6.27
2018-06-01T16:49:15.247Z,7.50
2018-06-01T16:51:43.732Z,7.10
2018-06-01T16:54:12.431Z,7.23
2018-06-01T16:56:40.779Z,6.70
2018-06-01T16:59:09.128Z,7.17
2018-06-01T17:01:37.503Z,7.70
2018-06-01T17:04:05.925Z,7.73
2018-06-01T17:06:34.318Z,7.47
2018-06-01T17:09:03.427Z,6.87
2018-06-01T17:11:32.497Z,7.50
2018-06-01T17:14:01.104Z,7.33
2018-06-01T17:16:30.027Z,8.10
2018-06-01T17:18:58.327Z,7.77
2018-06-01T17:21:26.636Z,6.93
2018-06-01T17:23:55.775Z,7.80
2018-06-01T17:26:24.144Z,7.93
2018-06-01T17:28:52.464Z,7.20
2018-06-01T17:31:20.850Z,7.97
2018-06-01T17:33:49.186Z,8.10
2018-06-01T17:36:17.496Z,6.60
2018-06-01T17:38:45.894Z,8.27
2018-06-01T17:41:14.230Z,7.73
2018-06-01T17:43:42.548Z,8.13
2018-06-01T17:46:11.189Z,7.30
2018-06-01T17:48:39.526Z,7.97
2018-06-01T17:51:07.919Z,7.60
2018-06-01T17:53:37.032Z,7.40
2018-06-01T17:56:05.377Z,8.07
2018-06-01T17:58:33.728Z,8.27
2018-06-01T18:01:02.289Z,7.83
2018-06-01T18:03:30.602Z,7.50
2018-06-01T18:05:58.964Z,7.83
2018-06-01T18:08:27.301Z,7.80
2018-06-01T18:10:55.678Z,7.60
2018-06-01T18:13:24.770Z,7.93
2018-06-01T18:15:53.111Z,10.23
2018-06-01T18:18:21.435Z,10.93
2018-06-01T18:20:49.806Z,11.33
2018-06-01T18:23:19.001Z,11.80
2018-06-01T18:25:47.347Z,12.40
2018-06-01T18:28:15.708Z,11.57
2018-06-01T18:30:44.055Z,12.37
2018-06-01T18:33:12.912Z,11.83
2018-06-01T18:35:41.254Z,11.60
2018-06-01T18:38:09.623Z,12.07
2018-06-01T18:40:37.962Z,12.33
2018-06-01T18:43:06.310Z,11.00
2018-06-01T18:45:35.024Z,11.13
2018-06-01T18:48:04.122Z,11.30
2018-06-01T18:50:33.212Z,10.53
2018-06-01T18:53:02.333Z,11.77
2018-06-01T18:55:31.425Z,11.77
2018-06-01T18:58:01.399Z,12.60
2018-06-01T19:00:29.831Z,14.00
2018-06-01T19:02:58.184Z,15.20
2018-06-01T19:05:26.488Z,14.77
2018-06-01T19:07:55.136Z,14.40
2018-06-01T19:10:23.474Z,14.40
2018-06-01T19:12:51.810Z,13.57
2018-06-01T19:15:20.907Z,13.50
2018-06-01T19:17:49.979Z,13.83
2018-06-01T19:20:18.282Z,13.77
2018-06-01T19:22:47.474Z,13.27
2018-06-01T19:25:15.831Z,11.80
2018-06-01T19:27:44.189Z,11.53
2018-06-01T19:30:13.106Z,11.27
2018-06-01T19:32:41.418Z,11.77
2018-06-01T19:35:09.782Z,11.30
2018-06-01T19:37:38.917Z,11.60
2018-06-01T19:40:07.288Z,12.07
2018-06-01T19:42:35.594Z,9.80
2018-06-01T19:45:03.956Z,9.97
2018-06-01T19:47:32.295Z,8.73
2018-06-01T19:50:00.667Z,9.97
2018-06-01T19:52:30.019Z,9.00
2018-06-01T19:54:58.377Z,10.00
2018-06-01T19:57:27.030Z,9.87
2018-06-01T19:59:55.400Z,10.43
2018-06-01T20:02:23.730Z,9.50
2018-06-01T20:04:53.286Z,10.20
2018-06-01T20:07:21.624Z,10.97
2018-06-01T20:09:50.050Z,10.10
2018-06-01T20:12:18.397Z,10.13
2018-06-01T20:14:47.214Z,10.73
2018-06-01T20:17:15.915Z,10.20
2018-06-01T20:19:44.289Z,11.40
2018-06-01T20:22:13.586Z,11.60
2018-06-01T20:24:42.688Z,12.00
2018-06-01T20:27:11.884Z,11.07
2018-06-01T20:29:40.360Z,10.97
2018-06-01T20:32:08.883Z,10.37
2018-06-01T20:34:37.280Z,10.80
2018-06-01T20:37:05.699Z,11.10
2018-06-01T20:39:34.057Z,11.40
2018-06-01T20:42:02.402Z,10.77
2018-06-01T20:44:30.942Z,11.23
2018-06-01T20:47:00.067Z,10.83
2018-06-01T20:49:28.610Z,10.97
2018-06-01T20:51:56.984Z,12.27
2018-06-01T20:54:25.550Z,11.20
2018-06-01T20:56:54.095Z,11.80
2018-06-01T20:59:22.977Z,12.10
2018-06-01T21:01:51.399Z,11.30
2018-06-01T21:04:19.728Z,12.00
2018-06-01T21:06:48.082Z,12.73
2018-06-01T21:09:16.504Z,11.97
2018-06-01T21:11:44.976Z,9.67
2018-06-01T21:14:13.436Z,10.30
2018-06-01T21:16:41.922Z,10.93
2018-06-01T21:19:10.249Z,9.90
2018-06-01T21:21:38.871Z,10.67
2018-06-01T21:24:07.392Z,10.30
2018-06-01T21:26:35.824Z,11.23
2018-06-01T21:29:04.549Z,10.53
2018-06-01T21:31:32.914Z,10.80
2018-06-01T21:34:01.256Z,10.50
2018-06-01T21:36:29.847Z,10.70
2018-06-01T21:38:58.307Z,9.67
2018-06-01T21:41:26.747Z,9.73
2018-06-01T21:43:56.475Z,10.63
2018-06-01T21:46:24.821Z,10.00
2018-06-01T21:48:53.180Z,10.33
2018-06-01T21:51:21.573Z,10.73
2018-06-01T21:53:49.919Z,10.47
2018-06-01T21:56:18.502Z,11.60
2018-06-01T21:58:47.072Z,12.20
2018-06-01T22:01:16.155Z,10.80
2018-06-01T22:03:45.251Z,10.37
2018-06-01T22:06:14.544Z,9.90
2018-06-01T22:08:43.700Z,10.17
2018-06-01T22:11:12.851Z,10.90
2018-06-01T22:13:41.211Z,10.03
2018-06-01T22:16:10.355Z,9.53
2018-06-01T22:18:38.701Z,10.27
2018-06-01T22:21:07.200Z,14.60
2018-06-01T22:23:36.099Z,11.60
2018-06-01T22:26:04.454Z,10.80
2018-06-01T22:28:33.901Z,9.90
2018-06-01T22:31:02.538Z,10.47
2018-06-01T22:33:30.879Z,10.50
2018-06-01T22:35:59.296Z,10.17
2018-06-01T22:38:27.822Z,10.20
2018-06-01T22:40:56.147Z,9.87
2018-06-01T22:43:25.552Z,10.20
2018-06-01T22:45:54.021Z,10.07
2018-06-01T22:48:24.508Z,11.40
2018-06-01T22:50:53.139Z,11.97
2018-06-01T22:53:22.260Z,12.90
2018-06-01T22:55:50.652Z,12.87
2018-06-01T22:58:19.159Z,12.53
2018-06-01T23:00:47.564Z,12.80
2018-06-01T23:03:15.898Z,13.90
2018-06-01T23:05:44.351Z,13.90
2018-06-01T23:08:12.726Z,14.03
2018-06-01T23:10:41.826Z,13.03
2018-06-01T23:13:11.534Z,14.43
2018-06-01T23:15:40.735Z,14.03
2018-06-01T23:18:09.255Z,14.03
2018-06-01T23:20:37.608Z,14.03
2018-06-01T23:23:06.044Z,14.70
2018-06-01T23:25:34.417Z,14.43
2018-06-01T23:28:02.759Z,15.57
2018-06-01T23:30:31.220Z,14.23
2018-06-01T23:32:59.711Z,15.17
2018-06-01T23:35:28.808Z,15.57
2018-06-01T23:37:57.157Z,14.37
2018-06-01T23:40:25.763Z,15.73
2018-06-01T23:42:54.129Z,15.50
2018-06-01T23:45:23.334Z,13.80
2018-06-01T23:47:51.743Z,14.70
2018-06-01T23:50:20.356Z,14.23
2018-06-01T23:52:48.771Z,14.20
2018-06-01T23:55:17.124Z,14.80
2018-06-01T23:57:45.597Z,14.93
